ウェーク島空軍基地の過去48時間の天気

ウェーク島空軍基地 (Wake Island Army Airfield Airport)

現在時刻: 12/16 20:01 +12 (12/16 08:01 UTC) 以下の時間は現地時間です。

過去48時間のMETAR気象情報
時間 風向 風速(m/s) 視程 気温(℃) 湿度(%) 気圧(hPa) 天気現象
16 17:58 北東 9 9000m 25.9 72 1013.1 煙霧
16 16:58 東北東 8 8000m 26.9 68 1013.1 煙霧
16 15:58 東北東 8 10km以上 28.1 61 1012.8
16 14:58 東北東 8 10km以上 28.5 56 1012.8
16 13:58 東北東 7 10km以上 28.6 57 1013.5
16 12:58 東北東 7 10km以上 28.2 65 1014.5
16 11:58 東北東 7 10km以上 27.4 71 1015.5
16 10:58 東北東 7 10km以上 26.5 70 1015.9
16 09:58 東北東 8 10km以上 26 74 1016.5
16 08:58 東北東 6 9000m 26.3 67 1016.2 煙霧
16 07:58 東北東 6 9000m 25.2 71 1015.9 煙霧
16 06:58 東北東 6 10km以上 25.1 70 1015.5
16 05:58 7 10km以上 25.5 66 1015.2
16 04:58 6 10km以上 25.2 68 1014.8
16 03:58 東北東 9 10km以上 25.4 73 1014.5
16 02:58 8 10km以上 25.2 73 1014.8
16 01:58 6 10km以上 25.5 69 1015.5
16 01:23 8 10km以上 25 74 1015.9
16 01:18 8 10km以上 25 74 1015.9
16 00:58 8 10km以上 25.4 73 1015.9
15 23:58 9 10km以上 25.3 69 1015.9
15 22:58 東北東 8 10km以上 25.3 73 1016.2
15 21:58 10 10km以上 25.7 70 1016.5
15 20:58 東北東 9 10km以上 25.5 72 1016.2
15 19:58 東北東 9 10km以上 25.6 72 1015.9
15 18:58 東北東 11 9000m 25.6 70 1015.2 煙霧
15 17:58 東北東 10 8000m 26.1 70 1014.8 煙霧
15 16:58 東北東 9 8000m 26.6 62 1014.8 煙霧
15 15:58 東北東 10 10km以上 27.6 65 1014.8
15 14:58 東北東 9 10km以上 27 69 1015.2
15 14:28 東北東 6 10km以上 26 70 1015.9
15 11:58 東北東 8 10km以上 27.6 59 1017.9
15 10:58 東北東 10 9000m 26.7 65 1018.2 煙霧
15 09:58 東北東 8 10km以上 26.6 61 1018.6
15 07:58 東北東 10 10km以上 25.3 65 1017
15 06:58 東北東 8 10km以上 25.3 65 1017
15 05:58 北東 7 10km以上 25.3 63 1017
15 04:58 6 10km以上 24.6 67 1017
15 03:58 東北東 8 10km以上 25.4 66 1017
15 02:58 東北東 10 10km以上 25.1 66 1017
15 01:58 9 10km以上 25.5 62 1017.9
15 00:58 東北東 9 10km以上 25.5 63 1017.9
14 23:58 東北東 12 10km以上 25.6 63 1017.9
14 22:58 東北東 11 10km以上 25.7 62 1017.9
14 21:58 東北東 10 10km以上 25.6 61 1017.9
PWAK 160558Z AUTO 05017KT 9000 HZ CLR 26/21 A2990 RMK AO2 SLP131 T02590205 10289 20259 53005 $
PWAK 160458Z AUTO 06016KT 8000 HZ CLR 27/21 A2990 RMK AO2 SLP131 T02690205 $
PWAK 160358Z AUTO 06016KT 9999 CLR 28/20 A2989 RMK AO2 SLP128 T02810199 $
PWAK 160258Z AUTO 07015KT 9999 CLR 29/19 A2989 RMK AO2 SLP128 T02850190 57026 $
PWAK 160158Z AUTO 07014KT 9999 CLR 29/19 A2991 RMK AO2 SLP135 T02860193 $
PWAK 160058Z AUTO 06013KT 9999 SCT055 28/21 A2994 RMK AO2 SLP145 T02820211 $
PWAK 152358Z AUTO 06013KT 9999 FEW018 27/22 A2997 RMK AO2 SLP155 T02740217 10276 20249 58010 $
PWAK 152258Z AUTO 07014KT 9999 FEW028 OVC041 27/21 A2998 RMK AO2 SLP159 T02650205 $
PWAK 152158Z AUTO 06016KT 9999 BKN032 BKN043 BKN060 26/21 A3000 RMK AO2 SLP165 T02600209 $
PWAK 152058Z AUTO 06011KT 9000 HZ FEW060 26/20 A2999 RMK AO2 SLP162 T02630198 52011 $
PWAK 151958Z AUTO 07011KT 9000 HZ BKN055 25/20 A2998 RMK AO2 SLP159 T02520196 $
PWAK 151858Z AUTO 07012KT 9999 SCT028 BKN050 25/19 A2997 RMK AO2 SLP155 T02510192 $
PWAK 151758Z AUTO 08013KT 9999 SCT036 OVC050 26/19 A2996 RMK AO2 SLP152 T02550187 10256 20250 53003 $
PWAK 151658Z AUTO 08011KT 9999 FEW048 25/19 A2995 RMK AO2 SLP148 T02520188 $
PWAK 151558Z AUTO 07017KT 9999 OVC049 25/20 A2994 RMK AO2 SLP145 T02540202 $
PWAK 151458Z AUTO 08015KT 9999 BKN047 25/20 A2995 RMK AO2 SLP148 T02520200 58010 $
PWAK 151358Z AUTO 08012G19KT 9999 SCT035 BKN045 26/20 A2997 RMK AO2 SLP155 T02550195 $
PWAK 151323Z AUTO 08016KT 9999 SCT026 BKN035 OVC045 25/20 A2998 RMK AO2 SLP159
PWAK 151318Z AUTO 08015KT 9999 BKN026 BKN036 OVC045 25/20 A2998 RMK AO2 CIG 026V040 BKN026 V SCT SLP159
PWAK 151258Z AUTO 08015G20KT 9999 SCT025 BKN034 BKN045 25/20 A2998 RMK AO2 SLP159 T02540202 $
PWAK 151158Z AUTO 08017KT 9999 FEW029 25/19 A2998 RMK AO2 SLP159 T02530192 10259 20252 58002 $
PWAK 151058Z AUTO 07015KT 9999 FEW027 SCT043 25/20 A2999 RMK AO2 SLP162 T02530201 $
PWAK 150958Z AUTO 08019G25KT 9999 BKN046 26/20 A3000 RMK AO2 SLP165 T02570198 $
PWAK 150858Z AUTO 07018KT 9999 FEW027 BKN046 26/20 A2999 RMK AO2 SLP162 T02550201 53012 $
PWAK 150758Z AUTO 07018KT 9999 FEW027 SCT045 26/20 A2998 RMK AO2 SLP159 T02560201 402880246 $
PWAK 150658Z AUTO 06021G27KT 9000 HZ OVC049 26/20 A2996 RMK AO2 PK WND 06027/52 SLP152 T02560198 $
PWAK 150558Z AUTO 06019G22KT 8000 HZ OVC050 26/20 A2995 RMK AO2 SLP148 60000 T02610202 10288 20255 55003 $
PWAK 150458Z AUTO 07017KT 8000 HZ OVC046 27/19 A2995 RMK AO2 SLP148 T02660188 $
PWAK 150358Z AUTO 06019KT 9999 FEW027 28/21 A2995 RMK AO2 SLP148 T02760205 $
PWAK 150258Z AUTO 06018KT 9999 FEW055 27/21 A2996 RMK AO2 RAB18E28 SLP152 P0000 60000 T02700208 57026 $
PWAK 150228Z AUTO 07011KT 9999 BKN044 OVC055 26/20 A2998 RMK AO2 RAB18E28 SLP159
PWAK 142358Z AUTO 07016KT 9999 OVC055 28/19 A3004 RMK AO2 SLP179 T02760189 10284 20247 58007 $
PWAK 142258Z AUTO 06020KT 9000 HZ FEW037 SCT048 BKN055 27/20 A3005 RMK AO2 SLP182 T02670195 $
PWAK 142158Z AUTO 07016KT 9999 OVC055 27/19 A3006 RMK AO2 SLP186 T02660185 $
PWAK 141958Z AUTO 07019KT 9999 FEW028 OVC050 25/18 A3004 RMK AO2 SLPNO T02530183 $
PWAK 141858Z AUTO 06015KT 9999 FEW042 OVC050 25/18 A3002 RMK AO2 SLPNO T02530182 $
PWAK 141758Z AUTO 05013KT 9999 OVC047 25/18 A3002 RMK AO2 SLPNO T02530177 10257 20246 58001 $
PWAK 141658Z AUTO 09011G17KT 9999 OVC049 25/18 A3002 RMK AO2 SLPNO T02460180 $
PWAK 141558Z AUTO 07016KT 9999 SCT035 OVC048 25/19 A3002 RMK AO2 SLPNO T02540187 $
PWAK 141458Z AUTO 06019G23KT 9999 OVC046 25/18 A3002 RMK AO2 SLPNO T02510183 58005 $
PWAK 141358Z AUTO 08018KT 9999 OVC040 26/18 A3004 RMK AO2 SLP179 T02550178 $
PWAK 141258Z AUTO 07018KT 9999 OVC042 26/18 A3004 RMK AO2 PK WND 06028/1158 SLP179 T02550180 $
PWAK 141158Z AUTO 06023G26KT 9999 OVC037 26/18 A3004 RMK AO2 PK WND 06028/1058 SLP179 T02560181 10260 20255 $
PWAK 141058Z AUTO 06021G26KT 9999 OVC038 26/18 A3004 RMK AO2 PK WND 08027/23 SLP179 T02570180 $
PWAK 140958Z AUTO 07019G25KT 9999 OVC039 26/17 A3004 RMK AO2 SLP179 T02560174 $